DAAJ

Djanet Inedbirene Airport

Djanet, Algeria
METAR DAAJ 191400Z 15010KT 4000 HZ NSC 28/04 Q1015
Observed Flight Rules
Nov-19 @ 14:00 UTC (29 minutes ago) Instrument Flight Rules
Wind Visibility Clouds Conditions
150° at 10 knots 4,007 meters
  • Clear skies
  • Haze
Temperatures Readings
Current 28°C / 82°F
Dewpoint 4°C / 39°F
Humidity 21%
Altimeter 29.97" Hg
Pressure 1015 hPa
Elevation 968
METAR DAAJ 191400Z 15010KT 4000 HZ NSC 28/04 Q1015
Observed Flight Rules
Nov-19 @ 14:00 UTC
(29 minutes ago)
IFR
Wind Visibility
150° at 10 knots 4,007 meters
Clouds
  • Clear skies
Conditions
  • Haze
Temperature Dewpoint
28°C / 82°F 4°C / 39°F
Humidity Altimeter Pressure
21% 29.97" Hg 1015 hPa